Time;durP1;ratioP1;P1;durP2;ratioP2;P2;SDS_P1;SDS_P2;PMS_P1;PMS_P2;Temp;Humidity;BMP_temperature;BMP_pressure;BME280_temperature;BME280_humidity;BME280_pressure;Samples;Min_cycle;Max_cycle;Signal;HPM_P1;HPM_P2
2022/12/30 00:01:16;;;;;;;21.55;13.23;;;;;;;6.21;95.40;99158.22;5051618;28;20411;-80
2022/12/30 00:03:42;;;;;;;22.98;13.70;;;;;;;6.22;95.88;99165.91;5051642;28;20036;-81
2022/12/30 00:06:14;;;;;;;19.10;12.07;;;;;;;6.17;95.69;99164.41;5051822;28;20025;-82
2022/12/30 00:08:47;;;;;;;23.15;14.55;;;;;;;6.16;95.89;99166.16;5051463;28;20107;-81
2022/12/30 00:11:20;;;;;;;54.75;25.58;;;;;;;6.14;96.12;99170.50;5051889;28;20132;-82
2022/12/30 00:34:07;;;;;;;53.05;29.45;;;;;;;5.91;96.82;99176.50;5051189;28;20028;-82
2022/12/30 00:36:34;;;;;;;101.00;44.42;;;;;;;5.95;96.68;99185.03;5051045;28;20052;-82
2022/12/30 00:38:59;;;;;;;78.50;33.72;;;;;;;5.78;97.17;99175.22;5051374;28;20132;-82
2022/12/30 00:44:08;;;;;;;135.27;45.35;;;;;;;5.87;97.67;99177.50;5051322;28;20040;-81
2022/12/30 00:46:35;;;;;;;101.97;36.20;;;;;;;5.85;97.24;99184.44;5051015;28;20025;-81
2022/12/30 00:57:13;;;;;;;54.85;22.42;;;;;;;6.09;97.51;99187.94;5051469;28;20437;-79
2022/12/30 00:59:38;;;;;;;24.90;15.02;;;;;;;6.16;97.17;99204.94;5050939;28;20021;-78
2022/12/30 01:02:04;;;;;;;20.48;12.80;;;;;;;6.29;97.19;99202.75;5052606;28;20373;-79
2022/12/30 01:04:29;;;;;;;21.52;12.82;;;;;;;6.30;96.77;99201.00;5055204;28;20051;-79
2022/12/30 01:06:55;;;;;;;22.08;13.00;;;;;;;6.40;96.66;99204.94;5055215;28;20146;-78
2022/12/30 01:09:20;;;;;;;23.10;12.98;;;;;;;6.38;96.57;99201.56;5055169;28;20392;-78
2022/12/30 01:12:07;;;;;;;20.38;12.43;;;;;;;6.47;96.30;99209.81;5054911;28;20461;-79
2022/12/30 01:14:31;;;;;;;18.23;11.73;;;;;;;6.48;95.95;99214.09;5054660;28;20035;-79
2022/12/30 01:16:56;;;;;;;17.65;12.10;;;;;;;6.51;96.36;99202.81;5055125;28;20373;-78
2022/12/30 01:19:22;;;;;;;18.20;11.98;;;;;;;6.57;95.91;99212.91;5055010;28;20060;-78
2022/12/30 01:21:47;;;;;;;16.88;11.60;;;;;;;6.59;95.44;99230.97;5055054;28;20468;-79
2022/12/30 01:24:12;;;;;;;16.63;11.85;;;;;;;6.51;95.83;99220.91;5055040;28;20048;-78
2022/12/30 01:26:37;;;;;;;21.40;12.88;;;;;;;6.48;95.60;99226.19;5054566;28;20092;-79
2022/12/30 01:29:03;;;;;;;16.23;11.63;;;;;;;6.54;95.71;99240.66;5054889;28;20017;-79
2022/12/30 01:31:28;;;;;;;14.93;11.43;;;;;;;6.58;95.68;99248.25;5054655;28;20083;-78
2022/12/30 01:33:53;;;;;;;16.35;11.35;;;;;;;6.61;95.48;99236.94;5054948;28;20028;-79
2022/12/30 01:36:19;;;;;;;16.98;11.75;;;;;;;6.62;95.73;99233.47;5054928;28;20032;-78
2022/12/30 01:38:44;;;;;;;19.48;12.05;;;;;;;6.64;95.60;99229.06;5054262;28;20473;-78
2022/12/30 01:41:09;;;;;;;18.67;11.68;;;;;;;6.69;95.16;99227.13;5054567;28;20479;-77
2022/12/30 01:43:43;;;;;;;14.85;10.23;;;;;;;6.79;94.96;99248.38;5054353;28;20082;-77
2022/12/30 01:46:11;;;;;;;17.80;11.60;;;;;;;6.75;95.05;99239.88;5054628;28;20017;-77
2022/12/30 01:48:37;;;;;;;20.02;12.07;;;;;;;6.83;94.75;99260.28;5054437;28;20082;-77
2022/12/30 01:51:09;;;;;;;15.82;11.25;;;;;;;6.77;94.61;99253.56;5054285;28;20029;-77
2022/12/30 01:53:38;;;;;;;16.30;11.45;;;;;;;6.78;94.12;99246.66;5054060;28;20053;-77
2022/12/30 01:56:27;;;;;;;16.70;11.60;;;;;;;6.88;94.04;99260.97;5054809;28;20048;-78
2022/12/30 01:58:55;;;;;;;14.88;10.70;;;;;;;6.88;94.05;99258.38;5054369;28;20029;-77
2022/12/30 02:01:20;;;;;;;13.68;10.35;;;;;;;6.85;93.94;99254.13;5054231;28;20016;-78
2022/12/30 02:04:01;;;;;;;17.58;11.45;;;;;;;6.77;93.75;99251.00;5053984;28;20024;-78
2022/12/30 02:06:51;;;;;;;16.65;12.07;;;;;;;6.77;93.57;99245.81;5054611;28;20495;-78
2022/12/30 02:09:18;;;;;;;19.75;12.60;;;;;;;6.77;93.56;99253.56;5054114;28;20066;-78
2022/12/30 02:11:43;;;;;;;18.50;13.27;;;;;;;6.84;93.34;99270.56;5053888;28;20028;-78
2022/12/30 02:14:09;;;;;;;20.70;14.52;;;;;;;6.85;93.60;99277.44;5052826;28;20360;-78
2022/12/30 02:16:34;;;;;;;21.45;14.23;;;;;;;6.86;93.25;99280.88;5053658;28;20021;-78
2022/12/30 02:19:50;;;;;;;20.25;13.30;;;;;;;6.79;93.62;99279.44;5054039;28;20036;-78
2022/12/30 02:22:21;;;;;;;20.85;13.80;;;;;;;6.85;93.63;99289.53;5053948;28;20420;-78
2022/12/30 02:25:02;;;;;;;19.45;13.57;;;;;;;6.87;93.53;99293.78;5053555;28;20169;-78
2022/12/30 02:27:42;;;;;;;17.40;12.55;;;;;;;6.88;93.49;99297.19;5053785;28;20108;-78
2022/12/30 02:30:20;;;;;;;20.95;13.77;;;;;;;6.90;93.29;99292.78;5053591;28;20111;-78
2022/12/30 02:33:16;;;;;;;25.10;15.80;;;;;;;6.90;93.11;99279.84;5053516;28;20025;-78
2022/12/30 02:35:57;;;;;;;24.77;14.77;;;;;;;6.86;93.46;99280.88;5053487;28;20017;-78
2022/12/30 02:38:42;;;;;;;21.38;13.90;;;;;;;6.78;93.51;99269.94;5053865;28;20469;-78
2022/12/30 02:44:38;;;;;;;19.30;13.13;;;;;;;6.77;93.04;99260.50;5031305;28;20032;-78
2022/12/30 02:47:18;;;;;;;17.60;11.32;;;;;;;6.77;93.22;99266.53;5030974;28;20099;-78
2022/12/30 02:52:14;;;;;;;18.73;13.37;;;;;;;6.63;93.26;99246.34;5030824;28;20034;-78
2022/12/30 02:52:34;;;;;;;15.10;12.23;;;;;;;6.66;93.68;99258.34;5030621;28;20036;-78
2022/12/30 02:54:59;;;;;;;17.63;12.10;;;;;;;6.65;93.78;99273.00;5030887;28;20434;-78
2022/12/30 02:57:33;;;;;;;17.23;12.75;;;;;;;6.63;93.78;99268.78;5030824;28;20064;-78
2022/12/30 03:06:03;;;;;;;18.50;13.63;;;;;;;6.62;94.54;99291.22;5030517;28;20103;-78
2022/12/30 03:08:47;;;;;;;17.50;12.27;;;;;;;6.61;94.91;99297.28;5030415;28;20033;-78
2022/12/30 03:11:16;;;;;;;19.85;13.32;;;;;;;6.58;95.04;99288.81;5030511;28;20368;-78
2022/12/30 03:14:12;;;;;;;22.55;14.88;;;;;;;6.59;94.96;99296.50;5013669;28;20096;-78
2022/12/30 03:16:46;;;;;;;23.63;14.63;;;;;;;6.53;94.96;99291.56;5030255;28;20029;-78
2022/12/30 03:19:20;;;;;;;20.58;13.73;;;;;;;6.49;94.82;99285.66;5030705;28;20037;-78
2022/12/30 03:21:49;;;;;;;20.25;13.95;;;;;;;6.53;95.07;99288.97;5048509;28;20417;-78
2022/12/30 03:27:09;;;;;;;19.65;13.40;;;;;;;6.55;95.20;99310.47;5052873;28;20429;-78
2022/12/30 03:29:34;;;;;;;17.67;12.65;;;;;;;6.54;95.39;99311.38;5052106;28;20456;-78
2022/12/30 03:32:01;;;;;;;18.80;13.27;;;;;;;6.44;94.92;99291.88;5052723;28;20028;-78
2022/12/30 03:34:27;;;;;;;18.83;12.55;;;;;;;6.47;95.21;99302.13;5052626;28;20178;-78
2022/12/30 03:36:59;;;;;;;17.33;12.45;;;;;;;6.46;95.29;99303.88;5052314;28;20020;-78
2022/12/30 03:39:33;;;;;;;17.40;13.25;;;;;;;6.43;95.81;99306.56;5052242;28;20044;-78
2022/12/30 03:42:00;;;;;;;17.13;12.70;;;;;;;6.49;95.64;99315.88;5051913;28;20100;-78
2022/12/30 03:44:25;;;;;;;14.98;12.02;;;;;;;6.53;95.29;99313.97;5052260;28;20028;-78
2022/12/30 03:46:51;;;;;;;19.05;12.82;;;;;;;6.49;95.10;99310.69;5051925;28;20035;-78
2022/12/30 03:49:18;;;;;;;15.55;12.02;;;;;;;6.49;95.27;99318.44;5052292;28;20032;-78
2022/12/30 03:51:43;;;;;;;17.13;12.38;;;;;;;6.38;95.52;99303.28;5051981;28;20453;-78
2022/12/30 03:54:09;;;;;;;15.13;10.95;;;;;;;6.38;95.95;99313.63;5052132;28;20040;-78
2022/12/30 03:56:34;;;;;;;14.55;11.45;;;;;;;6.44;95.56;99331.53;5051928;28;20111;-78
2022/12/30 03:58:59;;;;;;;17.00;11.85;;;;;;;6.46;95.47;99328.91;5051808;28;20025;-78
2022/12/30 04:01:24;;;;;;;16.73;11.93;;;;;;;6.39;95.45;99330.84;5052298;28;20023;-78
2022/12/30 04:03:50;;;;;;;18.25;12.82;;;;;;;6.44;95.71;99341.03;5051901;28;20021;-78
2022/12/30 04:06:15;;;;;;;20.30;14.05;;;;;;;6.36;95.70;99340.44;5052163;28;20013;-78
2022/12/30 04:08:40;;;;;;;17.30;12.60;;;;;;;6.38;96.01;99346.44;5051955;28;20048;-78
2022/12/30 04:11:06;;;;;;;21.17;14.30;;;;;;;6.31;96.17;99337.19;5051867;28;20016;-78
2022/12/30 04:13:31;;;;;;;21.30;14.52;;;;;;;6.31;96.44;99340.59;5051868;28;20032;-78
2022/12/30 04:15:56;;;;;;;15.30;12.88;;;;;;;6.30;96.48;99346.69;5051848;28;20024;-78
2022/12/30 04:18:22;;;;;;;19.30;14.25;;;;;;;6.24;96.67;99344.31;5051816;28;20025;-78
2022/12/30 04:20:48;;;;;;;17.65;13.25;;;;;;;6.29;96.82;99347.59;5051543;28;20025;-77
2022/12/30 04:23:14;;;;;;;18.38;13.02;;;;;;;6.30;96.45;99359.63;5051837;28;20025;-77
2022/12/30 04:25:40;;;;;;;14.80;11.70;;;;;;;6.27;96.59;99370.06;5051661;28;20021;-78
2022/12/30 04:28:05;;;;;;;16.92;12.65;;;;;;;6.20;97.20;99360.84;5051880;28;20090;-78
2022/12/30 04:30:31;;;;;;;17.65;12.45;;;;;;;6.18;97.34;99360.88;5051664;28;20522;-78
2022/12/30 04:32:57;;;;;;;17.52;12.45;;;;;;;6.22;97.22;99366.78;5051852;28;20025;-78
2022/12/30 04:35:22;;;;;;;16.45;11.65;;;;;;;6.17;97.53;99372.09;5051665;28;20028;-77
2022/12/30 04:37:48;;;;;;;94.70;28.10;;;;;;;6.10;97.50;99367.19;5053716;28;20162;-78
2022/12/30 04:40:14;;;;;;;69.88;24.75;;;;;;;6.08;97.65;99375.00;5055532;28;20103;-78
2022/12/30 04:42:39;;;;;;;34.53;16.45;;;;;;;6.05;97.72;99372.50;5055655;28;20159;-78
2022/12/30 04:45:05;;;;;;;21.88;13.15;;;;;;;6.10;97.93;99385.28;5055662;28;20025;-78
2022/12/30 04:47:30;;;;;;;29.58;15.88;;;;;;;6.09;98.28;99388.78;5055596;28;20028;-78
2022/12/30 04:49:56;;;;;;;27.77;15.23;;;;;;;6.08;98.13;99392.25;5055328;28;20032;-78
2022/12/30 04:52:21;;;;;;;30.88;14.43;;;;;;;6.05;98.56;99395.78;5055454;28;20475;-78
2022/12/30 04:54:47;;;;;;;25.45;14.65;;;;;;;6.05;98.75;99394.94;5055183;28;20021;-78
2022/12/30 04:57:12;;;;;;;26.95;14.43;;;;;;;5.96;98.64;99389.16;5055421;28;20028;-78
2022/12/30 04:59:37;;;;;;;34.80;16.92;;;;;;;5.96;98.64;99407.25;5055503;28;20033;-78
2022/12/30 05:02:03;;;;;;;31.77;15.73;;;;;;;5.97;98.58;99402.94;5055547;28;20119;-78
2022/12/30 05:04:28;;;;;;;28.80;14.88;;;;;;;6.02;98.64;99419.13;5055306;28;20503;-78
2022/12/30 05:06:53;;;;;;;32.13;15.05;;;;;;;6.03;98.70;99418.25;5055077;28;20021;-78
2022/12/30 05:09:19;;;;;;;24.63;14.55;;;;;;;5.97;98.81;99421.03;5055401;28;20020;-78
2022/12/30 05:11:44;;;;;;;26.77;13.02;;;;;;;5.99;98.73;99421.84;5055133;28;20032;-78
2022/12/30 05:14:09;;;;;;;19.98;11.82;;;;;;;6.03;98.66;99422.59;5055356;28;20103;-78
2022/12/30 05:16:35;;;;;;;14.23;10.30;;;;;;;6.10;98.42;99442.16;5055322;28;20146;-78
2022/12/30 05:19:00;;;;;;;19.35;11.05;;;;;;;6.10;98.47;99445.59;5054982;28;20074;-78
2022/12/30 05:21:25;;;;;;;16.00;10.88;;;;;;;6.01;98.72;99430.38;5054960;28;20017;-78
2022/12/30 05:26:34;;;;;;;11.73;8.88;;;;;;;6.09;98.43;99454.25;5054884;28;20027;-78
2022/12/30 05:29:00;;;;;;;12.35;9.60;;;;;;;6.09;98.25;99456.00;5054376;28;20028;-78
2022/12/30 05:31:25;;;;;;;12.55;8.55;;;;;;;6.13;98.46;99461.03;5054854;28;20025;-78
2022/12/30 05:33:50;;;;;;;11.85;8.00;;;;;;;6.15;98.62;99471.31;5054452;28;20053;-78
2022/12/30 05:36:16;;;;;;;12.68;8.68;;;;;;;6.13;98.45;99463.59;5054703;28;20083;-78
2022/12/30 05:38:41;;;;;;;11.52;7.85;;;;;;;6.14;98.11;99460.13;5054478;28;20044;-78
2022/12/30 05:41:08;;;;;;;12.27;7.80;;;;;;;6.20;98.24;99474.63;5054729;28;20432;-77
2022/12/30 05:43:33;;;;;;;11.75;7.97;;;;;;;6.18;98.06;99478.97;5054467;28;20029;-77
2022/12/30 05:45:58;;;;;;;11.68;7.40;;;;;;;6.12;98.03;99477.44;5054387;28;20514;-78
2022/12/30 05:48:25;;;;;;;11.73;7.07;;;;;;;6.17;98.06;99487.63;5053714;28;20037;-78
2022/12/30 05:50:51;;;;;;;13.48;7.25;;;;;;;6.14;98.26;99485.13;5054043;28;20071;-78
2022/12/30 05:53:16;;;;;;;9.73;7.15;;;;;;;6.06;98.21;99484.53;5054489;28;20083;-78
2022/12/30 05:55:42;;;;;;;15.20;8.35;;;;;;;6.12;98.06;99492.94;5054306;28;20027;-78
2022/12/30 05:58:08;;;;;;;13.85;8.15;;;;;;;6.04;98.31;99486.31;5053899;28;20453;-77
2022/12/30 06:00:33;;;;;;;10.82;7.55;;;;;;;6.06;98.16;99493.13;5054151;28;20025;-78
2022/12/30 06:02:59;;;;;;;11.13;8.15;;;;;;;6.01;97.92;99505.34;5053929;28;20025;-78
2022/12/30 06:05:24;;;;;;;14.32;7.88;;;;;;;5.92;98.11;99495.28;5054128;28;20023;-78
2022/12/30 06:07:49;;;;;;;13.98;8.70;;;;;;;5.89;98.74;99509.09;5053673;28;20115;-78
2022/12/30 06:10:15;;;;;;;11.98;8.40;;;;;;;5.81;98.32;99507.66;5054187;28;20491;-78
2022/12/30 06:12:40;;;;;;;15.73;9.10;;;;;;;5.73;98.57;99503.56;5054024;28;20056;-78
2022/12/30 06:15:06;;;;;;;15.90;9.60;;;;;;;5.60;98.75;99509.13;5053931;28;20400;-78
2022/12/30 06:17:32;;;;;;;49.58;19.23;;;;;;;5.63;98.97;99521.94;5053901;28;20422;-78
2022/12/30 06:19:57;;;;;;;71.60;25.13;;;;;;;5.62;99.01;99531.44;5053654;28;20017;-78
2022/12/30 06:22:23;;;;;;;36.83;17.25;;;;;;;5.66;99.43;99532.22;5053777;28;20111;-78
2022/12/30 06:24:48;;;;;;;24.02;12.88;;;;;;;5.59;99.38;99530.69;5053674;28;20025;-78
2022/12/30 06:27:13;;;;;;;33.15;15.95;;;;;;;5.61;99.74;99540.09;5053895;28;20025;-78
2022/12/30 06:29:39;;;;;;;41.05;18.58;;;;;;;5.61;99.91;99540.09;5053701;28;20017;-78
2022/12/30 06:32:04;;;;;;;35.33;17.60;;;;;;;5.58;99.92;99541.91;5053555;28;20539;-78
2022/12/30 06:34:30;;;;;;;31.27;17.08;;;;;;;5.61;100.00;99539.25;5053962;28;20025;-78
2022/12/30 06:36:55;;;;;;;25.33;16.05;;;;;;;5.55;100.00;99539.41;5053307;28;20421;-78
2022/12/30 06:39:20;;;;;;;30.52;16.30;;;;;;;5.57;100.00;99535.91;5053484;28;20362;-78
2022/12/30 06:41:46;;;;;;;27.25;16.80;;;;;;;5.64;100.00;99542.56;5053402;28;20037;-77
2022/12/30 06:44:11;;;;;;;33.78;19.08;;;;;;;5.62;100.00;99538.34;5053707;28;20445;-78
2022/12/30 06:46:36;;;;;;;49.92;26.45;;;;;;;5.60;100.00;99551.28;5053362;28;20025;-77
2022/12/30 06:49:02;;;;;;;57.88;30.17;;;;;;;5.46;100.00;99554.25;5052948;28;20139;-78
2022/12/30 06:51:27;;;;;;;65.03;31.50;;;;;;;5.32;100.00;99551.22;5053227;28;20059;-78
2022/12/30 06:53:52;;;;;;;64.15;32.50;;;;;;;5.28;100.00;99561.69;5053238;28;20452;-77
2022/12/30 06:56:18;;;;;;;69.85;33.38;;;;;;;5.12;100.00;99562.06;5053190;28;20117;-78
2022/12/30 06:58:43;;;;;;;44.63;22.65;;;;;;;5.11;100.00;99567.28;5053273;28;20090;-77
2022/12/30 07:01:08;;;;;;;26.05;15.15;;;;;;;5.02;100.00;99558.03;5052219;28;20031;-77
2022/12/30 07:03:34;;;;;;;22.80;12.68;;;;;;;5.07;100.00;99570.81;5052885;28;20013;-77
2022/12/30 07:05:59;;;;;;;22.58;12.68;;;;;;;4.98;100.00;99567.59;5052661;28;20025;-77
2022/12/30 07:08:24;;;;;;;20.35;10.52;;;;;;;5.02;100.00;99570.09;5053066;28;20341;-78
2022/12/30 07:10:49;;;;;;;20.45;11.45;;;;;;;5.00;100.00;99572.69;5052677;28;20032;-77
2022/12/30 07:13:15;;;;;;;20.23;9.80;;;;;;;5.01;100.00;99582.13;5052706;28;20021;-78
2022/12/30 07:15:40;;;;;;;14.10;8.02;;;;;;;5.00;100.00;99585.59;5052613;28;20051;-77
2022/12/30 07:18:06;;;;;;;15.95;7.93;;;;;;;4.96;100.00;99590.00;5052511;28;20380;-78
2022/12/30 07:20:31;;;;;;;14.02;7.78;;;;;;;4.89;100.00;99574.72;5052586;28;20052;-77
2022/12/30 07:22:56;;;;;;;13.90;8.88;;;;;;;4.91;100.00;99591.84;5052434;28;20056;-77
2022/12/30 07:25:22;;;;;;;15.05;7.93;;;;;;;4.83;100.00;99586.03;5053110;28;20033;-77
2022/12/30 07:27:47;;;;;;;14.57;8.77;;;;;;;4.85;100.00;99597.16;5052651;28;20041;-78
2022/12/30 07:30:13;;;;;;;14.75;9.73;;;;;;;4.71;100.00;99579.41;5052263;28;20104;-77
2022/12/30 07:32:38;;;;;;;19.60;10.48;;;;;;;4.74;100.00;99592.25;5052388;28;20013;-77
2022/12/30 07:35:07;;;;;;;18.10;10.68;;;;;;;4.80;100.00;99609.31;5051965;28;20056;-78
2022/12/30 07:37:33;;;;;;;23.67;10.98;;;;;;;4.72;100.00;99600.94;5052121;28;20057;-77
2022/12/30 07:39:58;;;;;;;15.73;9.57;;;;;;;4.75;100.00;99619.75;5051679;28;20095;-77
2022/12/30 07:42:23;;;;;;;14.73;9.80;;;;;;;4.74;100.00;99630.94;5052260;28;20024;-78
2022/12/30 07:44:49;;;;;;;21.80;10.95;;;;;;;4.68;100.00;99627.69;5050897;28;20028;-77
2022/12/30 07:47:14;;;;;;;22.70;12.52;;;;;;;4.64;100.00;99636.38;5051651;28;20013;-77
2022/12/30 07:49:40;;;;;;;30.48;15.48;;;;;;;4.70;100.00;99643.97;5052002;28;20074;-77
2022/12/30 07:52:06;;;;;;;32.53;16.70;;;;;;;4.67;100.00;99644.88;5051718;28;20082;-78
2022/12/30 07:54:31;;;;;;;38.00;18.55;;;;;;;4.71;100.00;99654.22;5052113;28;20395;-77
2022/12/30 07:56:57;;;;;;;38.97;19.85;;;;;;;4.74;100.00;99636.09;5051902;28;20040;-78
2022/12/30 07:59:22;;;;;;;36.22;19.17;;;;;;;5.02;100.00;99656.13;5051939;28;20031;-78
2022/12/30 08:01:47;;;;;;;36.08;20.20;;;;;;;5.18;100.00;99665.19;5051987;28;20103;-78
2022/12/30 08:04:13;;;;;;;40.30;19.95;;;;;;;5.29;100.00;99658.91;5051778;28;20063;-77
2022/12/30 08:06:38;;;;;;;36.28;19.05;;;;;;;5.55;100.00;99677.16;5051744;28;20024;-78
2022/12/30 08:09:05;;;;;;;38.45;20.58;;;;;;;5.74;100.00;99677.56;5051906;28;20021;-78
2022/12/30 08:11:31;;;;;;;39.53;20.17;;;;;;;5.95;100.00;99678.75;5051858;28;20469;-78
2022/12/30 08:13:56;;;;;;;34.33;19.02;;;;;;;6.12;99.97;99668.78;5051755;28;20039;-78
2022/12/30 08:16:22;;;;;;;36.47;19.42;;;;;;;6.30;99.67;99662.22;5051919;28;20608;-78
2022/12/30 08:18:47;;;;;;;50.53;23.92;;;;;;;6.55;98.54;99677.88;5051841;28;20078;-78
2022/12/30 08:21:15;;;;;;;46.95;23.10;;;;;;;6.85;98.25;99678.69;5051480;28;20021;-78
2022/12/30 08:23:44;;;;;;;30.30;16.77;;;;;;;7.08;97.22;99677.13;5051963;28;20040;-78
2022/12/30 08:26:14;;;;;;;25.33;13.52;;;;;;;7.24;96.48;99684.34;5051646;28;20342;-78
2022/12/30 08:28:39;;;;;;;19.98;12.68;;;;;;;7.32;96.28;99696.22;5051772;28;20040;-77
2022/12/30 08:31:17;;;;;;;20.10;12.75;;;;;;;7.24;95.86;99692.13;5051544;28;20021;-78
2022/12/30 08:33:44;;;;;;;19.95;10.63;;;;;;;7.23;95.55;99702.53;5051686;28;20082;-78
2022/12/30 08:36:11;;;;;;;16.23;9.20;;;;;;;7.23;95.80;99721.50;5051620;28;20456;-78
2022/12/30 08:38:41;;;;;;;13.73;8.93;;;;;;;7.11;95.24;99711.53;5051639;28;20060;-78
2022/12/30 08:41:10;;;;;;;16.93;10.63;;;;;;;7.16;94.86;99707.09;5051214;28;20021;-78
2022/12/30 08:43:36;;;;;;;23.40;12.27;;;;;;;7.30;94.13;99717.00;5051594;28;20070;-78
2022/12/30 08:46:02;;;;;;;22.48;10.63;;;;;;;7.34;94.02;99721.19;5051279;28;20040;-77
2022/12/30 08:48:28;;;;;;;20.60;11.65;;;;;;;7.33;93.81;99722.09;5051525;28;20017;-78
2022/12/30 08:50:53;;;;;;;29.42;13.82;;;;;;;7.40;93.69;99733.09;5051727;28;20029;-78
2022/12/30 08:53:19;;;;;;;19.65;12.45;;;;;;;7.53;93.28;99743.91;5051427;28;20104;-78
2022/12/30 08:55:44;;;;;;;24.20;15.02;;;;;;;7.48;92.92;99742.31;5051662;28;20481;-78
2022/12/30 08:58:09;;;;;;;27.00;16.10;;;;;;;7.46;92.65;99736.34;5051212;28;20356;-78
2022/12/30 09:00:36;;;;;;;30.60;19.13;;;;;;;7.39;92.29;99732.25;5051669;28;20036;-78
2022/12/30 09:03:02;;;;;;;31.65;19.13;;;;;;;7.47;92.69;99750.16;5051195;28;20028;-78
2022/12/30 09:05:28;;;;;;;24.25;15.77;;;;;;;7.30;92.84;99729.94;5051649;28;20029;-78
2022/12/30 09:07:54;;;;;;;23.27;14.43;;;;;;;7.31;92.81;99754.13;5051481;28;20017;-77
2022/12/30 09:10:19;;;;;;;30.00;17.05;;;;;;;7.25;92.97;99752.56;5051269;28;20029;-77
2022/12/30 09:12:44;;;;;;;37.28;19.88;;;;;;;7.14;93.48;99741.69;5051265;28;20460;-78
2022/12/30 09:15:10;;;;;;;51.70;28.27;;;;;;;7.08;93.58;99749.63;5051097;28;20028;-78
2022/12/30 09:17:35;;;;;;;24.15;14.13;;;;;;;7.03;93.96;99754.94;5051320;28;20091;-77
2022/12/30 09:20:01;;;;;;;17.83;10.40;;;;;;;6.85;94.03;99742.56;5051240;28;20021;-76
2022/12/30 09:22:26;;;;;;;16.85;9.75;;;;;;;6.85;94.05;99751.19;5051474;28;20024;-77
2022/12/30 09:24:51;;;;;;;15.10;8.63;;;;;;;6.78;94.50;99754.84;5054786;28;20025;-77
2022/12/30 09:27:17;;;;;;;14.73;8.05;;;;;;;6.73;94.54;99762.75;5046431;28;20021;-78
2022/12/30 09:29:42;;;;;;;12.63;7.28;;;;;;;6.65;94.54;99756.94;5044148;28;20048;-78
2022/12/30 09:32:07;;;;;;;12.75;7.30;;;;;;;6.69;94.72;99757.69;5042328;28;20099;-78
2022/12/30 09:34:33;;;;;;;15.15;7.93;;;;;;;6.68;94.54;99749.09;5043988;28;20031;-78
2022/12/30 09:36:58;;;;;;;13.27;7.80;;;;;;;6.70;94.94;99752.50;5042676;28;20104;-78
2022/12/30 09:39:30;;;;;;;13.43;8.52;;;;;;;6.78;94.89;99764.34;5042486;28;20041;-78
2022/12/30 09:45:01;;;;;;;10.32;6.07;;;;;;;6.84;94.98;99762.44;5062164;28;20037;-78
2022/12/30 09:47:30;;;;;;;13.23;5.20;;;;;;;6.86;95.19;99767.56;5059111;28;20029;-78
2022/12/30 09:50:20;;;;;;;10.95;5.18;;;;;;;7.03;95.21;99774.81;5060270;28;20102;-78
2022/12/30 09:53:06;;;;;;;9.65;5.10;;;;;;;7.09;94.85;99774.66;5070386;28;20021;-78
2022/12/30 09:55:55;;;;;;;8.48;5.03;;;;;;;7.16;94.54;99777.03;5061272;28;20032;-78
2022/12/30 09:58:28;;;;;;;13.93;5.43;;;;;;;7.17;94.58;99760.56;5067525;28;20491;-78
2022/12/30 10:00:59;;;;;;;12.63;4.70;;;;;;;7.24;93.96;99762.06;5071580;28;20070;-78
2022/12/30 10:03:25;;;;;;;;;;;;;;;7.35;93.70;99774.69;5071955;28;20040;-78
2022/12/30 10:06:02;;;;;;;8.85;4.30;;;;;;;7.37;93.50;99772.88;5071155;28;19904;-78
2022/12/30 10:09:05;;;;;;;7.97;4.72;;;;;;;7.42;93.72;99775.38;5071467;28;20519;-79
2022/12/30 10:11:49;;;;;;;9.02;4.43;;;;;;;7.44;92.72;99768.38;5031157;28;20550;-78
2022/12/30 10:14:51;;;;;;;7.07;3.90;;;;;;;7.51;92.47;99772.47;5031129;28;20400;-78
2022/12/30 10:17:19;;;;;;;9.32;4.53;;;;;;;7.56;91.99;99767.97;5031169;28;20036;-78
2022/12/30 10:19:47;;;;;;;8.63;4.03;;;;;;;7.61;92.01;99760.06;5031048;28;20037;-78
2022/12/30 10:22:40;;;;;;;9.23;4.00;;;;;;;7.58;91.88;99742.84;4994387;28;20046;-78
2022/12/30 10:25:11;;;;;;;6.78;4.20;;;;;;;7.67;91.53;99750.34;4972206;28;20030;-78
2022/12/30 10:27:46;;;;;;;8.82;3.95;;;;;;;7.68;91.53;99736.47;4987628;28;20109;-78
2022/12/30 10:30:15;;;;;;;7.47;3.72;;;;;;;7.66;91.46;99730.47;4991357;28;20026;-78
2022/12/30 10:32:46;;;;;;;9.15;3.80;;;;;;;7.67;91.21;99726.16;4991721;28;20034;-78
2022/12/30 10:35:26;;;;;;;7.32;4.05;;;;;;;7.78;90.46;99742.19;4990379;28;20502;-78
2022/12/30 10:38:20;;;;;;;9.85;4.07;;;;;;;7.82;90.55;99741.19;4991696;28;20027;-78
2022/12/30 10:41:12;;;;;;;14.02;5.05;;;;;;;7.84;90.33;99741.16;4991261;28;20382;-78
2022/12/30 10:44:05;;;;;;;6.55;3.60;;;;;;;7.89;90.22;99734.06;4991269;28;20034;-78
2022/12/30 10:47:12;;;;;;;6.07;3.53;;;;;;;7.90;89.85;99727.97;5002927;28;20037;-78
2022/12/30 10:49:43;;;;;;;8.48;4.65;;;;;;;7.94;89.80;99729.56;5010872;28;20021;-78
2022/12/30 10:52:12;;;;;;;12.30;4.22;;;;;;;7.92;89.56;99720.97;5010831;28;20037;-78
2022/12/30 10:54:37;;;;;;;9.18;4.00;;;;;;;7.95;89.30;99713.94;4996691;28;20034;-78
2022/12/30 10:57:03;;;;;;;8.55;3.83;;;;;;;7.96;89.12;99705.28;4991411;28;20485;-78
2022/12/30 10:59:30;;;;;;;11.68;3.83;;;;;;;8.05;88.98;99723.97;4991120;28;20036;-78
2022/12/30 11:02:13;;;;;;;8.68;3.60;;;;;;;8.05;88.78;99721.38;4991292;28;20030;-78
2022/12/30 11:04:41;;;;;;;7.22;3.40;;;;;;;8.09;88.75;99710.88;4991330;28;20113;-78
2022/12/30 11:07:12;;;;;;;10.23;4.03;;;;;;;8.12;88.69;99710.75;5004798;28;20038;-82
2022/12/30 11:09:38;;;;;;;7.60;3.70;;;;;;;8.15;88.78;99717.59;5010558;28;20049;-82
2022/12/30 11:15:10;;;;;;;8.00;4.00;;;;;;;8.20;88.10;99720.84;5010791;28;20064;-83
2022/12/30 11:18:02;;;;;;;6.93;3.60;;;;;;;8.25;88.05;99718.94;4994240;28;20425;-83
2022/12/30 11:20:30;;;;;;;8.88;4.43;;;;;;;8.29;87.53;99712.72;4952298;29;20414;-78
2022/12/30 11:22:57;;;;;;;9.75;4.00;;;;;;;8.31;86.81;99710.09;4956356;28;20042;-78
2022/12/30 11:25:28;;;;;;;7.30;3.72;;;;;;;8.33;86.82;99703.94;4971175;28;20045;-78
2022/12/30 11:27:57;;;;;;;8.48;3.65;;;;;;;8.32;87.21;99701.41;4971359;28;20034;-78
2022/12/30 11:30:28;;;;;;;7.97;3.85;;;;;;;8.31;87.28;99695.38;4970931;28;20076;-78
2022/12/30 11:32:55;;;;;;;12.65;5.10;;;;;;;8.33;87.17;99701.34;4971456;28;20066;-78
2022/12/30 11:35:44;;;;;;;19.88;11.25;;;;;;;8.28;87.26;99690.28;4971147;28;20038;-79
2022/12/30 11:38:28;;;;;;;13.90;8.32;;;;;;;8.31;87.26;99690.19;4970696;28;20062;-78
2022/12/30 11:40:54;;;;;;;13.73;6.35;;;;;;;8.31;87.10;99689.34;4971125;28;20062;-78
2022/12/30 11:43:20;;;;;;;19.02;12.02;;;;;;;8.30;86.97;99691.09;4970720;28;20533;-78
2022/12/30 11:46:02;;;;;;;15.45;10.65;;;;;;;8.30;86.74;99675.53;4970950;28;20042;-79
2022/12/30 11:48:31;;;;;;;22.60;19.92;;;;;;;8.33;86.91;99677.16;4971042;28;20081;-79
2022/12/30 11:50:58;;;;;;;26.40;23.30;;;;;;;8.34;86.63;99674.47;4971094;28;20046;-78
2022/12/30 11:53:28;;;;;;;45.38;40.35;;;;;;;8.38;86.61;99683.88;4970967;28;20077;-79
2022/12/30 11:55:54;;;;;;;44.47;39.92;;;;;;;8.30;86.62;99680.72;4971100;28;20027;-79
2022/12/30 11:58:20;;;;;;;29.20;23.20;;;;;;;8.40;86.88;99696.81;5042559;28;20037;-79
2022/12/30 12:00:54;;;;;;;11.40;5.38;;;;;;;8.34;86.42;99679.66;5032282;28;20053;-79
2022/12/30 12:03:20;;;;;;;9.88;5.53;;;;;;;8.30;86.58;99664.28;5032293;28;20108;-78
2022/12/30 12:05:46;;;;;;;9.77;5.80;;;;;;;8.41;86.89;99677.75;5032403;28;20112;-79
2022/12/30 12:08:24;;;;;;;9.95;5.03;;;;;;;8.42;86.72;99695.00;5031748;28;20025;-78
2022/12/30 12:10:55;;;;;;;12.00;5.82;;;;;;;8.40;86.81;99687.28;5031974;28;20151;-78
2022/12/30 12:14:07;;;;;;;9.57;4.60;;;;;;;8.46;86.90;99700.00;5031890;28;20032;-78
2022/12/30 12:16:37;;;;;;;10.63;5.47;;;;;;;8.52;86.46;99695.53;5029801;28;20079;-78
2022/12/30 12:19:19;;;;;;;9.23;4.40;;;;;;;8.49;86.49;99694.72;5029381;28;20080;-78
2022/12/30 12:21:49;;;;;;;9.57;4.35;;;;;;;8.49;86.54;99699.91;5029622;28;20108;-78
2022/12/30 12:24:26;;;;;;;7.03;4.25;;;;;;;8.49;86.52;99704.25;5029238;28;20037;-78
2022/12/30 12:27:02;;;;;;;7.97;3.55;;;;;;;8.43;86.83;99694.97;5029432;28;20484;-78
2022/12/30 12:29:28;;;;;;;7.38;4.35;;;;;;;8.34;87.03;99692.66;5019461;28;20492;-78
2022/12/30 12:32:12;;;;;;;10.20;4.75;;;;;;;8.33;87.09;99695.31;5018374;28;20497;-78